PWSweather.com
Personal Weather Stations
Station Observations
SUBOTICARS
SuboticaYU

SuboticaYU

Lat: 46.1296717, Lon: 19.641551

Elevation: 110

Station Type: Nexus

http://sumeteo.info

Latest ConditionsUpdated 4:50:33 PM GMT+01:01 Friday, Apr 18, 2014
Currently Today's Max Today's Min Today's Average
Temperature 61.6°F16.4°C 66.2°F19.0°C 44.8°F7.1°C 54.9°F12.7°C
Dew Point 50.6°F10.3°C 50.6°F10.3°C 39.9°F4.4°C 44.6°F7.0°C
Winds 1.0 mph NNE1.6 kmh NNE 5.9 mph NNW9.5 kmh NNW - 2.9 mph 4.7 kmh
Wind Gusts 2.0 mph3.2 kmh 9.9 mph15.9 kmh - -
Humidity 67% 83% 51% 69%
Pressure 29.71 in1006.1 mb 29.89 in1012.2 mb 29.71 in1006.1 mb -
Hour Temp Dew Point Humidity Winds Wind Gusts Pressure Precip Precip Rate Daily Precip Total
04:50 PM 61.6°F16.4°C 50.6°F10.3°C 67% 1.0 mph NNE1.6 kmh NNE 2.0 mph3.2 kmh 29.71 in1006.1 mb 0.00 in0.0 mm 0.00 in/hr0.0 mm/hr 0.00 in0.0 mm
04:40 PM 62.1°F16.7°C 50.2°F10.1°C 65% 0.1 mph WSW0.2 kmh WSW 2.6 mph4.2 kmh 29.72 in1006.4 mb 0.00 in0.0 mm 0.00 in/hr0.0 mm/hr 0.00 in0.0 mm
04:30 PM 62.4°F16.9°C 50.1°F10.1°C 64% 0.3 mph WSW0.5 kmh WSW -- 29.72 in1006.4 mb 0.00 in0.0 mm 0.00 in/hr0.0 mm/hr 0.00 in0.0 mm
04:20 PM 62.6°F17.0°C 49.8°F9.9°C 63% 1.4 mph SW2.3 kmh SW 2.3 mph3.7 kmh 29.73 in1006.8 mb 0.00 in0.0 mm 0.00 in/hr0.0 mm/hr 0.00 in0.0 mm
04:10 PM 62.8°F17.1°C 50.0°F10.0°C 63% 0.8 mph SW1.3 kmh SW 3.4 mph5.5 kmh 29.73 in1006.8 mb 0.00 in0.0 mm 0.00 in/hr0.0 mm/hr 0.00 in0.0 mm
04:00 PM 63.2°F17.3°C 49.1°F9.5°C 60% 0.3 mph SSW0.5 kmh SSW 2.6 mph4.2 kmh 29.73 in1006.8 mb 0.00 in0.0 mm 0.00 in/hr0.0 mm/hr 0.00 in0.0 mm
03:50 PM 63.3°F17.4°C 48.3°F9.1°C 58% 0.3 mph NE0.5 kmh NE -- 29.73 in1006.8 mb 0.00 in0.0 mm 0.00 in/hr0.0 mm/hr 0.00 in0.0 mm
03:40 PM 63.2°F17.3°C 48.2°F9.0°C 58% Calm Calm -- 29.73 in1006.8 mb 0.00 in0.0 mm 0.00 in/hr0.0 mm/hr 0.00 in0.0 mm
03:30 PM 63.2°F17.3°C 47.7°F8.7°C 57% Calm Calm -- 29.73 in1006.8 mb 0.00 in0.0 mm 0.00 in/hr0.0 mm/hr 0.00 in0.0 mm
03:20 PM 63.1°F17.3°C 47.7°F8.7°C 57% 0.1 mph ENE0.2 kmh ENE 1.7 mph2.7 kmh 29.73 in1006.8 mb 0.00 in0.0 mm 0.00 in/hr0.0 mm/hr 0.00 in0.0 mm
03:10 PM 63.2°F17.3°C 47.7°F8.7°C 57% 0.1 mph E0.2 kmh E -- 29.73 in1006.8 mb 0.00 in0.0 mm 0.00 in/hr0.0 mm/hr 0.00 in0.0 mm
03:00 PM 63.3°F17.4°C 47.8°F8.8°C 57% 0.4 mph ENE0.6 kmh ENE 1.5 mph2.4 kmh 29.73 in1006.8 mb 0.00 in0.0 mm 0.00 in/hr0.0 mm/hr 0.00 in0.0 mm
02:50 PM 63.7°F17.6°C 47.2°F8.4°C 55% 1.1 mph SE1.8 kmh SE 2.6 mph4.2 kmh 29.73 in1006.8 mb 0.00 in0.0 mm 0.00 in/hr0.0 mm/hr 0.00 in0.0 mm
02:40 PM 63.9°F17.7°C 47.4°F8.6°C 55% 1.8 mph SE2.9 kmh SE 1.7 mph2.7 kmh 29.73 in1006.8 mb 0.00 in0.0 mm 0.00 in/hr0.0 mm/hr 0.00 in0.0 mm
02:30 PM 64.0°F17.8°C 47.5°F8.6°C 55% 1.5 mph E2.4 kmh E 2.6 mph4.2 kmh 29.73 in1006.8 mb 0.00 in0.0 mm 0.00 in/hr0.0 mm/hr 0.00 in0.0 mm
02:20 PM 64.2°F17.9°C 47.7°F8.7°C 55% 1.6 mph E2.6 kmh E 2.3 mph3.7 kmh 29.73 in1006.8 mb 0.00 in0.0 mm 0.00 in/hr0.0 mm/hr 0.00 in0.0 mm
02:10 PM 64.5°F18.1°C 46.0°F7.8°C 51% 1.0 mph NNE1.6 kmh NNE -- 29.73 in1006.8 mb 0.00 in0.0 mm 0.00 in/hr0.0 mm/hr 0.00 in0.0 mm
02:00 PM 64.9°F18.3°C 47.4°F8.6°C 53% 2.4 mph SE3.9 kmh SE 2.4 mph3.9 kmh 29.74 in1007.1 mb 0.00 in0.0 mm 0.00 in/hr0.0 mm/hr 0.00 in0.0 mm
01:50 PM 65.1°F18.4°C 47.6°F8.7°C 53% 2.8 mph E4.5 kmh E 5.5 mph8.9 kmh 29.74 in1007.1 mb 0.00 in0.0 mm 0.00 in/hr0.0 mm/hr 0.00 in0.0 mm
01:40 PM 64.8°F18.2°C 47.2°F8.4°C 53% 3.5 mph ESE5.6 kmh ESE 4.7 mph7.6 kmh 29.75 in1007.5 mb 0.00 in0.0 mm 0.00 in/hr0.0 mm/hr 0.00 in0.0 mm
01:30 PM 65.0°F18.3°C 47.4°F8.6°C 53% 3.4 mph ESE5.5 kmh ESE 6.3 mph10.1 kmh 29.75 in1007.5 mb 0.00 in0.0 mm 0.00 in/hr0.0 mm/hr 0.00 in0.0 mm
01:20 PM 65.1°F18.4°C 48.1°F8.9°C 54% 3.4 mph ENE5.5 kmh ENE 5.8 mph9.3 kmh 29.75 in1007.5 mb 0.00 in0.0 mm 0.00 in/hr0.0 mm/hr 0.00 in0.0 mm
01:10 PM 65.3°F18.5°C 47.7°F8.7°C 53% 3.1 mph E5.0 kmh E 3.5 mph5.6 kmh 29.75 in1007.5 mb 0.00 in0.0 mm 0.00 in/hr0.0 mm/hr 0.00 in0.0 mm
01:00 PM 65.7°F18.7°C 48.6°F9.2°C 54% 3.9 mph ESE6.3 kmh ESE 5.4 mph8.7 kmh 29.74 in1007.1 mb 0.00 in0.0 mm 0.00 in/hr0.0 mm/hr 0.00 in0.0 mm
12:50 PM 65.8°F18.8°C 48.2°F9.0°C 53% 2.8 mph E4.5 kmh E 5.8 mph9.3 kmh 29.74 in1007.1 mb 0.00 in0.0 mm 0.00 in/hr0.0 mm/hr 0.00 in0.0 mm
12:40 PM 65.7°F18.7°C 49.1°F9.5°C 55% 3.6 mph E5.8 kmh E 4.6 mph7.4 kmh 29.75 in1007.5 mb 0.00 in0.0 mm 0.00 in/hr0.0 mm/hr 0.00 in0.0 mm
12:30 PM 65.5°F18.6°C 48.4°F9.1°C 54% 3.7 mph ENE6.0 kmh ENE 8.1 mph13.0 kmh 29.75 in1007.5 mb 0.00 in0.0 mm 0.00 in/hr0.0 mm/hr 0.00 in0.0 mm
12:20 PM 65.8°F18.8°C 48.2°F9.0°C 53% 3.6 mph N5.8 kmh N 9.8 mph15.8 kmh 29.75 in1007.5 mb 0.00 in0.0 mm 0.00 in/hr0.0 mm/hr 0.00 in0.0 mm
12:10 PM 65.9°F18.8°C 48.3°F9.1°C 53% 2.9 mph ESE4.7 kmh ESE 2.4 mph3.9 kmh 29.75 in1007.5 mb 0.00 in0.0 mm 0.00 in/hr0.0 mm/hr 0.00 in0.0 mm
12:00 PM 65.5°F18.6°C 46.9°F8.3°C 51% 4.8 mph E7.7 kmh E 5.7 mph9.2 kmh 29.75 in1007.5 mb 0.00 in0.0 mm 0.00 in/hr0.0 mm/hr 0.00 in0.0 mm
11:50 AM 66.2°F19.0°C 47.5°F8.6°C 51% 3.5 mph E5.6 kmh E 7.3 mph11.7 kmh 29.75 in1007.5 mb 0.00 in0.0 mm 0.00 in/hr0.0 mm/hr 0.00 in0.0 mm
11:40 AM 65.9°F18.8°C 47.3°F8.5°C 51% 2.9 mph E4.7 kmh E 3.7 mph6.0 kmh 29.75 in1007.5 mb 0.00 in0.0 mm 0.00 in/hr0.0 mm/hr 0.00 in0.0 mm
11:30 AM 65.5°F18.6°C 47.9°F8.8°C 53% 3.1 mph N5.0 kmh N 3.2 mph5.1 kmh 29.75 in1007.5 mb 0.00 in0.0 mm 0.00 in/hr0.0 mm/hr 0.00 in0.0 mm
11:20 AM 65.8°F18.8°C 48.1°F8.9°C 53% 2.7 mph NW4.3 kmh NW 5.4 mph8.7 kmh 29.75 in1007.5 mb 0.00 in0.0 mm 0.00 in/hr0.0 mm/hr 0.00 in0.0 mm
11:10 AM 65.1°F18.4°C 48.5°F9.2°C 55% 3.1 mph ENE5.0 kmh ENE 3.8 mph6.1 kmh 29.75 in1007.5 mb 0.00 in0.0 mm 0.00 in/hr0.0 mm/hr 0.00 in0.0 mm
11:00 AM 64.3°F17.9°C 47.3°F8.5°C 54% 4.1 mph NNW6.6 kmh NNW 6.0 mph9.7 kmh 29.76 in1007.8 mb 0.00 in0.0 mm 0.00 in/hr0.0 mm/hr 0.00 in0.0 mm
10:50 AM 63.9°F17.7°C 47.9°F8.8°C 56% 4.6 mph WNW7.4 kmh WNW 2.3 mph3.7 kmh 29.76 in1007.8 mb 0.00 in0.0 mm 0.00 in/hr0.0 mm/hr 0.00 in0.0 mm
10:40 AM 63.1°F17.3°C 47.6°F8.7°C 57% 5.9 mph NNW9.5 kmh NNW 9.9 mph15.9 kmh 29.75 in1007.5 mb 0.00 in0.0 mm 0.00 in/hr0.0 mm/hr 0.00 in0.0 mm
10:30 AM 62.3°F16.8°C 47.8°F8.8°C 59% 4.3 mph NNW6.9 kmh NNW 8.7 mph14.0 kmh 29.75 in1007.5 mb 0.00 in0.0 mm 0.00 in/hr0.0 mm/hr 0.00 in0.0 mm
10:20 AM 61.5°F16.4°C 47.5°F8.6°C 60% 5.7 mph N9.2 kmh N 7.2 mph11.6 kmh 29.77 in1008.1 mb 0.00 in0.0 mm 0.00 in/hr0.0 mm/hr 0.00 in0.0 mm
10:10 AM 61.7°F16.5°C 47.7°F8.7°C 60% 5.2 mph N8.4 kmh N 6.7 mph10.8 kmh 29.77 in1008.1 mb 0.00 in0.0 mm 0.00 in/hr0.0 mm/hr 0.00 in0.0 mm
10:00 AM 61.9°F16.6°C 48.3°F9.1°C 61% 4.9 mph NNW7.9 kmh NNW 8.7 mph14.0 kmh 29.77 in1008.1 mb 0.00 in0.0 mm 0.00 in/hr0.0 mm/hr 0.00 in0.0 mm
09:50 AM 61.2°F16.2°C 48.0°F8.9°C 62% 5.5 mph NNE8.9 kmh NNE 8.3 mph13.4 kmh 29.77 in1008.1 mb 0.00 in0.0 mm 0.00 in/hr0.0 mm/hr 0.00 in0.0 mm
09:40 AM 60.4°F15.8°C 46.8°F8.2°C 61% 4.7 mph N7.6 kmh N 9.0 mph14.5 kmh 29.78 in1008.5 mb 0.00 in0.0 mm 0.00 in/hr0.0 mm/hr 0.00 in0.0 mm
09:30 AM 59.6°F15.3°C 47.0°F8.3°C 63% 4.2 mph S6.8 kmh S 7.5 mph12.1 kmh 29.78 in1008.5 mb 0.00 in0.0 mm 0.00 in/hr0.0 mm/hr 0.00 in0.0 mm
09:20 AM 58.9°F14.9°C 47.6°F8.7°C 66% 3.8 mph NNW6.1 kmh NNW 7.6 mph12.2 kmh 29.79 in1008.8 mb 0.00 in0.0 mm 0.00 in/hr0.0 mm/hr 0.00 in0.0 mm
09:10 AM 57.6°F14.2°C 47.1°F8.4°C 68% 4.1 mph E6.6 kmh E 6.4 mph10.3 kmh 29.79 in1008.8 mb 0.00 in0.0 mm 0.00 in/hr0.0 mm/hr 0.00 in0.0 mm
09:00 AM 57.4°F14.1°C 47.7°F8.7°C 70% 3.5 mph NNE5.6 kmh NNE 4.9 mph7.9 kmh 29.80 in1009.1 mb 0.00 in0.0 mm 0.00 in/hr0.0 mm/hr 0.00 in0.0 mm
08:50 AM 55.8°F13.2°C 46.5°F8.1°C 71% 3.8 mph NE6.1 kmh NE 5.7 mph9.2 kmh 29.80 in1009.1 mb 0.00 in0.0 mm 0.00 in/hr0.0 mm/hr 0.00 in0.0 mm
08:40 AM 54.7°F12.6°C 46.2°F7.9°C 73% 3.2 mph ENE5.1 kmh ENE 6.0 mph9.7 kmh 29.80 in1009.1 mb 0.00 in0.0 mm 0.00 in/hr0.0 mm/hr 0.00 in0.0 mm
08:30 AM 54.1°F12.3°C 46.0°F7.8°C 74% 3.5 mph E5.6 kmh E 3.5 mph5.6 kmh 29.80 in1009.1 mb 0.00 in0.0 mm 0.00 in/hr0.0 mm/hr 0.00 in0.0 mm
08:20 AM 53.0°F11.7°C 45.7°F7.6°C 76% 4.1 mph NE6.6 kmh NE 6.6 mph10.6 kmh 29.80 in1009.1 mb 0.00 in0.0 mm 0.00 in/hr0.0 mm/hr 0.00 in0.0 mm
08:10 AM 51.5°F10.8°C 44.5°F6.9°C 77% 2.6 mph NE4.2 kmh NE 6.7 mph10.8 kmh 29.80 in1009.1 mb 0.00 in0.0 mm 0.00 in/hr0.0 mm/hr 0.00 in0.0 mm
08:00 AM 50.7°F10.4°C 44.1°F6.7°C 78% 3.5 mph NNE5.6 kmh NNE 5.4 mph8.7 kmh 29.80 in1009.1 mb 0.00 in0.0 mm 0.00 in/hr0.0 mm/hr 0.00 in0.0 mm
07:50 AM 50.2°F10.1°C 43.9°F6.6°C 79% 3.5 mph NE5.6 kmh NE 6.3 mph10.1 kmh 29.80 in1009.1 mb 0.00 in0.0 mm 0.00 in/hr0.0 mm/hr 0.00 in0.0 mm
07:40 AM 49.5°F9.7°C 43.3°F6.3°C 79% 2.8 mph W4.5 kmh W 6.7 mph10.8 kmh 29.79 in1008.8 mb 0.00 in0.0 mm 0.00 in/hr0.0 mm/hr 0.00 in0.0 mm
07:30 AM 49.1°F9.5°C 43.2°F6.2°C 80% 1.5 mph NNE2.4 kmh NNE 1.8 mph2.9 kmh 29.79 in1008.8 mb 0.00 in0.0 mm 0.00 in/hr0.0 mm/hr 0.00 in0.0 mm
07:20 AM 48.7°F9.3°C 42.8°F6.0°C 80% 3.3 mph N5.3 kmh N 5.5 mph8.9 kmh 29.79 in1008.8 mb 0.00 in0.0 mm 0.00 in/hr0.0 mm/hr 0.00 in0.0 mm
07:10 AM 48.7°F9.3°C 42.8°F6.0°C 80% 3.1 mph N5.0 kmh N 3.8 mph6.1 kmh 29.79 in1008.8 mb 0.00 in0.0 mm 0.00 in/hr0.0 mm/hr 0.00 in0.0 mm
07:00 AM 48.7°F9.3°C 42.8°F6.0°C 80% 2.8 mph NNE4.5 kmh NNE 4.1 mph6.6 kmh 29.80 in1009.1 mb 0.00 in0.0 mm 0.00 in/hr0.0 mm/hr 0.00 in0.0 mm
06:50 AM 48.1°F8.9°C 42.5°F5.8°C 81% 3.8 mph N6.1 kmh N 4.0 mph6.4 kmh 29.80 in1009.1 mb 0.00 in0.0 mm 0.00 in/hr0.0 mm/hr 0.00 in0.0 mm
06:40 AM 47.5°F8.6°C 41.9°F5.5°C 81% 3.2 mph NE5.1 kmh NE 6.7 mph10.8 kmh 29.80 in1009.1 mb 0.00 in0.0 mm 0.00 in/hr0.0 mm/hr 0.00 in0.0 mm
06:30 AM 47.2°F8.4°C 42.0°F5.6°C 82% 3.0 mph NE4.8 kmh NE 4.1 mph6.6 kmh 29.80 in1009.1 mb 0.00 in0.0 mm 0.00 in/hr0.0 mm/hr 0.00 in0.0 mm
06:20 AM 46.7°F8.2°C 41.5°F5.3°C 82% 2.9 mph N4.7 kmh N 5.4 mph8.7 kmh 29.81 in1009.5 mb 0.00 in0.0 mm 0.00 in/hr0.0 mm/hr 0.00 in0.0 mm
06:10 AM 46.3°F7.9°C 41.4°F5.2°C 83% 2.4 mph N3.9 kmh N 4.4 mph7.1 kmh 29.81 in1009.5 mb 0.00 in0.0 mm 0.00 in/hr0.0 mm/hr 0.00 in0.0 mm
06:00 AM 46.4°F8.0°C 41.5°F5.3°C 83% 2.4 mph NE3.9 kmh NE 4.3 mph6.9 kmh 29.81 in1009.5 mb 0.00 in0.0 mm 0.00 in/hr0.0 mm/hr 0.00 in0.0 mm
05:50 AM 46.0°F7.8°C 41.2°F5.1°C 83% 2.4 mph N3.9 kmh N 5.7 mph9.2 kmh 29.81 in1009.5 mb 0.00 in0.0 mm 0.00 in/hr0.0 mm/hr 0.00 in0.0 mm
05:40 AM 45.9°F7.7°C 41.0°F5.0°C 83% 3.2 mph N5.1 kmh N 4.7 mph7.6 kmh 29.81 in1009.5 mb 0.00 in0.0 mm 0.00 in/hr0.0 mm/hr 0.00 in0.0 mm
05:30 AM 45.7°F7.6°C 40.8°F4.9°C 83% 3.0 mph N4.8 kmh N 2.4 mph3.9 kmh 29.81 in1009.5 mb 0.00 in0.0 mm 0.00 in/hr0.0 mm/hr 0.00 in0.0 mm
05:20 AM 45.6°F7.6°C 40.7°F4.8°C 83% 2.9 mph N4.7 kmh N 5.7 mph9.2 kmh 29.80 in1009.1 mb 0.00 in0.0 mm 0.00 in/hr0.0 mm/hr 0.00 in0.0 mm
05:10 AM 45.3°F7.4°C 40.5°F4.7°C 83% 3.3 mph NNW5.3 kmh NNW 4.3 mph6.9 kmh 29.80 in1009.1 mb 0.00 in0.0 mm 0.00 in/hr0.0 mm/hr 0.00 in0.0 mm
05:00 AM 45.2°F7.3°C 40.4°F4.7°C 83% 4.0 mph N6.4 kmh N 5.8 mph9.3 kmh 29.80 in1009.1 mb 0.00 in0.0 mm 0.00 in/hr0.0 mm/hr 0.00 in0.0 mm
04:50 AM 45.2°F7.3°C 40.4°F4.7°C 83% 3.2 mph NE5.1 kmh NE 7.5 mph12.1 kmh 29.80 in1009.1 mb 0.00 in0.0 mm 0.00 in/hr0.0 mm/hr 0.00 in0.0 mm
04:40 AM 45.1°F7.3°C 40.3°F4.6°C 83% 2.6 mph NE4.2 kmh NE 7.0 mph11.3 kmh 29.82 in1009.8 mb 0.00 in0.0 mm 0.00 in/hr0.0 mm/hr 0.00 in0.0 mm
04:30 AM 45.0°F7.2°C 40.1°F4.5°C 83% 2.8 mph NE4.5 kmh NE 6.3 mph10.1 kmh 29.82 in1009.8 mb 0.00 in0.0 mm 0.00 in/hr0.0 mm/hr 0.00 in0.0 mm
04:20 AM 45.0°F7.2°C 40.1°F4.5°C 83% 2.9 mph NNE4.7 kmh NNE 4.6 mph7.4 kmh 29.82 in1009.8 mb 0.00 in0.0 mm 0.00 in/hr0.0 mm/hr 0.00 in0.0 mm
04:10 AM 45.0°F7.2°C 40.1°F4.5°C 83% 3.1 mph NE5.0 kmh NE 4.6 mph7.4 kmh 29.82 in1009.8 mb 0.00 in0.0 mm 0.00 in/hr0.0 mm/hr 0.00 in0.0 mm
04:00 AM 45.0°F7.2°C 40.1°F4.5°C 83% 3.0 mph NW4.8 kmh NW 5.8 mph9.3 kmh 29.83 in1010.2 mb 0.00 in0.0 mm 0.00 in/hr0.0 mm/hr 0.00 in0.0 mm
03:50 AM 44.8°F7.1°C 39.9°F4.4°C 83% 2.6 mph NNE4.2 kmh NNE 3.2 mph5.1 kmh 29.83 in1010.2 mb 0.00 in0.0 mm 0.00 in/hr0.0 mm/hr 0.00 in0.0 mm
03:40 AM 45.0°F7.2°C 40.1°F4.5°C 83% 3.0 mph NNW4.8 kmh NNW 3.5 mph5.6 kmh 29.83 in1010.2 mb 0.00 in0.0 mm 0.00 in/hr0.0 mm/hr 0.00 in0.0 mm
03:30 AM 45.2°F7.3°C 40.1°F4.5°C 82% 3.2 mph NE5.1 kmh NE 5.2 mph8.4 kmh 29.83 in1010.2 mb 0.00 in0.0 mm 0.00 in/hr0.0 mm/hr 0.00 in0.0 mm
03:20 AM 45.1°F7.3°C 40.0°F4.4°C 82% 3.2 mph E5.1 kmh E 3.8 mph6.1 kmh 29.83 in1010.2 mb 0.00 in0.0 mm 0.00 in/hr0.0 mm/hr 0.00 in0.0 mm
03:10 AM 45.3°F7.4°C 40.1°F4.5°C 82% 2.9 mph NNE4.7 kmh NNE 4.4 mph7.1 kmh 29.83 in1010.2 mb 0.00 in0.0 mm 0.00 in/hr0.0 mm/hr 0.00 in0.0 mm
03:00 AM 45.3°F7.4°C 40.1°F4.5°C 82% 3.1 mph NNE5.0 kmh NNE 4.4 mph7.1 kmh 29.83 in1010.2 mb 0.00 in0.0 mm 0.00 in/hr0.0 mm/hr 0.00 in0.0 mm
02:50 AM 45.6°F7.6°C 40.4°F4.7°C 82% 3.5 mph N5.6 kmh N 3.8 mph6.1 kmh 29.83 in1010.2 mb 0.00 in0.0 mm 0.00 in/hr0.0 mm/hr 0.00 in0.0 mm
02:40 AM 45.7°F7.6°C 40.5°F4.7°C 82% 2.5 mph N4.0 kmh N 5.8 mph9.3 kmh 29.84 in1010.5 mb 0.00 in0.0 mm 0.00 in/hr0.0 mm/hr 0.00 in0.0 mm
02:30 AM 45.8°F7.7°C 40.3°F4.6°C 81% 2.3 mph N3.7 kmh N 5.5 mph8.9 kmh 29.84 in1010.5 mb 0.00 in0.0 mm 0.00 in/hr0.0 mm/hr 0.00 in0.0 mm
02:20 AM 45.9°F7.7°C 40.1°F4.5°C 80% 2.8 mph N4.5 kmh N 5.2 mph8.4 kmh 29.85 in1010.8 mb 0.00 in0.0 mm 0.00 in/hr0.0 mm/hr 0.00 in0.0 mm
02:10 AM 45.9°F7.7°C 40.0°F4.4°C 80% 2.6 mph NNE4.2 kmh NNE 6.0 mph9.7 kmh 29.85 in1010.8 mb 0.00 in0.0 mm 0.00 in/hr0.0 mm/hr 0.00 in0.0 mm
02:00 AM 46.2°F7.9°C 40.4°F4.7°C 80% 1.4 mph NE2.3 kmh NE 2.8 mph4.5 kmh 29.86 in1011.2 mb 0.00 in0.0 mm 0.00 in/hr0.0 mm/hr 0.00 in0.0 mm
01:50 AM 46.5°F8.1°C 40.3°F4.6°C 79% 2.8 mph NE4.5 kmh NE 2.9 mph4.7 kmh 29.86 in1011.2 mb 0.00 in0.0 mm 0.00 in/hr0.0 mm/hr 0.00 in0.0 mm
01:40 AM 46.6°F8.1°C 40.4°F4.7°C 79% 3.2 mph N5.1 kmh N 6.4 mph10.3 kmh 29.85 in1010.8 mb 0.00 in0.0 mm 0.00 in/hr0.0 mm/hr 0.00 in0.0 mm
01:30 AM 46.9°F8.3°C 40.4°F4.7°C 78% 2.9 mph NE4.7 kmh NE 5.2 mph8.4 kmh 29.85 in1010.8 mb 0.00 in0.0 mm 0.00 in/hr0.0 mm/hr 0.00 in0.0 mm
01:20 AM 47.1°F8.4°C 40.6°F4.8°C 78% 3.4 mph NE5.5 kmh NE 4.6 mph7.4 kmh 29.86 in1011.2 mb 0.00 in0.0 mm 0.00 in/hr0.0 mm/hr 0.00 in0.0 mm
01:10 AM 47.3°F8.5°C 40.8°F4.9°C 78% 3.1 mph NE5.0 kmh NE 5.8 mph9.3 kmh 29.86 in1011.2 mb 0.00 in0.0 mm 0.00 in/hr0.0 mm/hr 0.00 in0.0 mm
01:00 AM 47.6°F8.7°C 41.1°F5.1°C 78% 3.5 mph NE5.6 kmh NE 4.9 mph7.9 kmh 29.86 in1011.2 mb 0.00 in0.0 mm 0.00 in/hr0.0 mm/hr 0.00 in0.0 mm
12:50 AM 47.8°F8.8°C 41.3°F5.2°C 78% 3.2 mph NE5.1 kmh NE 5.4 mph8.7 kmh 29.86 in1011.2 mb 0.00 in0.0 mm 0.00 in/hr0.0 mm/hr 0.00 in0.0 mm
12:40 AM 48.0°F8.9°C 41.5°F5.3°C 78% 3.2 mph N5.1 kmh N 4.3 mph6.9 kmh 29.88 in1011.9 mb 0.00 in0.0 mm 0.00 in/hr0.0 mm/hr 0.00 in0.0 mm
12:30 AM 48.1°F8.9°C 41.2°F5.1°C 77% 3.2 mph NE5.1 kmh NE 5.7 mph9.2 kmh 29.88 in1011.9 mb 0.00 in0.0 mm 0.00 in/hr0.0 mm/hr 0.00 in0.0 mm
12:20 AM 48.2°F9.0°C 41.3°F5.2°C 77% 2.7 mph N4.3 kmh N 4.4 mph7.1 kmh 29.88 in1011.9 mb 0.00 in0.0 mm 0.00 in/hr0.0 mm/hr 0.00 in0.0 mm
12:10 AM 48.5°F9.2°C 41.3°F5.2°C 76% 2.8 mph N4.5 kmh N 3.2 mph5.1 kmh 29.88 in1011.9 mb 0.00 in0.0 mm 0.00 in/hr0.0 mm/hr 0.00 in0.0 mm
12:00 AM 48.7°F9.3°C 41.2°F5.1°C 75% 1.9 mph NNE3.1 kmh NNE 3.7 mph6.0 kmh 29.89 in1012.2 mb 0.00 in0.0 mm 0.00 in/hr0.0 mm/hr 0.00 in0.0 mm